createdAt,value
2018-07-15T00:00:19.349Z,18.21
2018-07-15T00:00:54.573Z,18.19
2018-07-15T00:01:30.063Z,18.15
2018-07-15T00:02:05.680Z,18.24
2018-07-15T00:02:40.866Z,18.28
2018-07-15T00:03:16.101Z,18.25
2018-07-15T00:03:51.476Z,18.27
2018-07-15T00:04:27.041Z,18.27
2018-07-15T00:05:02.441Z,18.22
2018-07-15T00:05:38.077Z,18.22
2018-07-15T00:06:13.491Z,18.22
2018-07-15T00:06:48.825Z,18.25
2018-07-15T00:07:24.215Z,18.17
2018-07-15T00:07:59.538Z,18.22
2018-07-15T00:08:35.008Z,18.18
2018-07-15T00:09:10.223Z,18.18
2018-07-15T00:09:45.464Z,18.21
2018-07-15T00:10:20.861Z,18.17
2018-07-15T00:10:55.943Z,18.24
2018-07-15T00:11:31.040Z,18.17
2018-07-15T00:12:06.226Z,18.22
2018-07-15T00:12:41.238Z,18.15
2018-07-15T00:13:16.552Z,18.17
2018-07-15T00:13:51.748Z,18.22
2018-07-15T00:14:27.043Z,18.21
2018-07-15T00:15:02.306Z,18.15
2018-07-15T00:15:37.703Z,18.13
2018-07-15T00:16:13.304Z,18.12
2018-07-15T00:16:48.596Z,18.15
2018-07-15T00:17:24.021Z,18.13
2018-07-15T00:17:59.302Z,18.12
2018-07-15T00:18:34.697Z,18.12
2018-07-15T00:19:10.406Z,18.12
2018-07-15T00:19:46.045Z,18.09
2018-07-15T00:20:21.633Z,18.15
2018-07-15T00:20:57.065Z,18.06
2018-07-15T00:21:32.255Z,18.09
2018-07-15T00:22:07.483Z,18.13
2018-07-15T00:22:42.611Z,18.10
2018-07-15T00:23:18.035Z,18.04
2018-07-15T00:23:53.129Z,18.13
2018-07-15T00:24:28.649Z,18.09
2018-07-15T00:25:03.750Z,18.10
2018-07-15T00:25:39.386Z,18.10
2018-07-15T00:26:14.588Z,18.06
2018-07-15T00:26:49.899Z,18.04
2018-07-15T00:27:25.194Z,18.00
2018-07-15T00:28:00.496Z,18.03
2018-07-15T00:28:35.876Z,17.97
2018-07-15T00:29:11.097Z,18.06
2018-07-15T00:29:46.335Z,18.00
2018-07-15T00:30:21.650Z,17.99
2018-07-15T00:30:56.834Z,18.07
2018-07-15T00:31:32.263Z,17.95
2018-07-15T00:32:07.874Z,17.94
2018-07-15T00:32:43.082Z,17.97
2018-07-15T00:33:18.181Z,18.04
2018-07-15T00:33:53.709Z,17.89
2018-07-15T00:34:29.209Z,18.00
2018-07-15T00:35:04.648Z,17.84
2018-07-15T00:35:39.855Z,17.84
2018-07-15T00:36:15.084Z,17.85
2018-07-15T00:36:50.568Z,17.88
2018-07-15T00:37:25.954Z,17.84
2018-07-15T00:38:01.327Z,17.82
2018-07-15T00:38:36.647Z,17.85
2018-07-15T00:39:12.507Z,17.89
2018-07-15T00:39:47.836Z,17.84
2018-07-15T00:40:22.921Z,17.87
2018-07-15T00:40:58.066Z,17.94
2018-07-15T00:41:33.244Z,17.87
2018-07-15T00:42:08.477Z,17.79
2018-07-15T00:42:43.756Z,17.87
2018-07-15T00:43:18.970Z,17.76
2018-07-15T00:43:54.457Z,17.76
2018-07-15T00:44:29.569Z,17.76
2018-07-15T00:45:05.177Z,17.76
2018-07-15T00:45:40.591Z,17.74
2018-07-15T00:46:15.954Z,17.78
2018-07-15T00:46:51.251Z,17.69
2018-07-15T00:47:26.924Z,17.73
2018-07-15T00:48:02.133Z,17.71
2018-07-15T00:48:37.609Z,17.69
2018-07-15T00:49:12.824Z,17.79
2018-07-15T00:49:48.225Z,17.84
2018-07-15T00:50:23.535Z,17.70
2018-07-15T00:50:58.693Z,17.69
2018-07-15T00:51:34.128Z,17.73
2018-07-15T00:52:09.214Z,17.66
2018-07-15T00:52:44.414Z,17.67
2018-07-15T00:53:19.844Z,17.69
2018-07-15T00:53:55.076Z,17.69
2018-07-15T00:54:30.549Z,17.64
2018-07-15T00:55:05.675Z,17.67
2018-07-15T00:55:40.975Z,17.66
2018-07-15T00:56:16.123Z,17.69
2018-07-15T00:56:51.308Z,17.69
2018-07-15T00:57:26.527Z,17.67
2018-07-15T00:58:01.616Z,17.66
2018-07-15T00:58:37.134Z,17.63
2018-07-15T00:59:12.231Z,17.63
2018-07-15T00:59:47.697Z,17.64
2018-07-15T01:00:23.300Z,17.57
2018-07-15T01:00:58.816Z,17.67
2018-07-15T01:01:34.093Z,17.62
2018-07-15T01:02:09.479Z,17.57
2018-07-15T01:02:44.665Z,17.55
2018-07-15T01:03:19.972Z,17.53
2018-07-15T01:03:55.266Z,17.55
2018-07-15T01:04:30.601Z,17.54
2018-07-15T01:05:06.313Z,17.50
2018-07-15T01:05:41.606Z,17.46
2018-07-15T01:06:16.984Z,17.48
2018-07-15T01:06:52.399Z,17.40
2018-07-15T01:07:27.796Z,17.44
2018-07-15T01:08:02.936Z,17.35
2018-07-15T01:08:38.744Z,17.38
2018-07-15T01:09:13.846Z,17.33
2018-07-15T01:09:49.370Z,17.30
2018-07-15T01:10:25.188Z,17.33
2018-07-15T01:11:00.255Z,17.30
2018-07-15T01:11:35.501Z,17.38
2018-07-15T01:12:10.882Z,17.35
2018-07-15T01:12:46.013Z,17.28
2018-07-15T01:13:21.413Z,17.30
2018-07-15T01:13:57.051Z,17.36
2018-07-15T01:14:32.164Z,17.33
2018-07-15T01:15:07.704Z,17.40
2018-07-15T01:15:43.187Z,17.35
2018-07-15T01:16:18.485Z,17.30
2018-07-15T01:16:53.773Z,17.43
2018-07-15T01:17:29.090Z,17.30
2018-07-15T01:18:04.581Z,17.36
2018-07-15T01:18:39.881Z,17.36
2018-07-15T01:19:15.172Z,17.32
2018-07-15T01:19:50.621Z,17.33
2018-07-15T01:20:25.791Z,17.41
2018-07-15T01:21:01.091Z,17.33
2018-07-15T01:21:36.373Z,17.26
2018-07-15T01:22:11.689Z,17.25
2018-07-15T01:22:47.268Z,17.32
2018-07-15T01:23:22.579Z,17.30
2018-07-15T01:23:57.876Z,17.36
2018-07-15T01:24:33.221Z,17.26
2018-07-15T01:25:08.750Z,17.30
2018-07-15T01:25:44.299Z,17.28
2018-07-15T01:26:19.687Z,17.33
2018-07-15T01:26:54.995Z,17.22
2018-07-15T01:27:30.297Z,17.28
2018-07-15T01:28:05.705Z,17.33
2018-07-15T01:28:40.900Z,17.28
2018-07-15T01:29:16.237Z,17.26
2018-07-15T01:29:51.573Z,17.29
2018-07-15T01:30:27.143Z,17.23
2018-07-15T01:31:02.219Z,17.29
2018-07-15T01:31:37.618Z,17.26
2018-07-15T01:32:12.915Z,17.23
2018-07-15T01:32:48.447Z,17.26
2018-07-15T01:33:23.644Z,17.17
2018-07-15T01:33:59.161Z,17.32
2018-07-15T01:34:34.970Z,17.22
2018-07-15T01:35:10.076Z,17.23
2018-07-15T01:35:45.477Z,17.29
2018-07-15T01:36:20.818Z,17.23
2018-07-15T01:36:56.221Z,17.18
2018-07-15T01:37:31.634Z,17.25
2018-07-15T01:38:06.819Z,17.17
2018-07-15T01:38:42.332Z,17.11
2018-07-15T01:39:17.509Z,17.23
2018-07-15T01:39:52.964Z,17.23
2018-07-15T01:40:28.265Z,17.10
2018-07-15T01:41:03.577Z,17.18
2018-07-15T01:41:38.759Z,17.11
2018-07-15T01:42:14.387Z,17.03
2018-07-15T01:42:49.976Z,17.06
2018-07-15T01:43:25.578Z,17.00
2018-07-15T01:44:00.941Z,17.07
2018-07-15T01:44:36.311Z,17.06
2018-07-15T01:45:11.982Z,17.03
2018-07-15T01:45:47.201Z,17.10
2018-07-15T01:46:22.579Z,16.99
2018-07-15T01:46:57.681Z,17.00
2018-07-15T01:47:32.865Z,17.04
2018-07-15T01:48:07.978Z,17.14
2018-07-15T01:48:43.372Z,17.03
2018-07-15T01:49:18.697Z,16.99
2018-07-15T01:49:54.187Z,16.95
2018-07-15T01:50:29.651Z,17.06
2018-07-15T01:51:05.049Z,16.99
2018-07-15T01:51:40.469Z,17.04
2018-07-15T01:52:15.859Z,17.04
2018-07-15T01:52:51.122Z,16.99
2018-07-15T01:53:26.629Z,16.98
2018-07-15T01:54:01.958Z,16.99
2018-07-15T01:54:37.259Z,16.98
2018-07-15T01:55:12.870Z,16.93
2018-07-15T01:55:48.160Z,16.99
2018-07-15T01:56:23.387Z,16.96
2018-07-15T01:56:58.595Z,16.96
2018-07-15T01:57:34.205Z,16.96
2018-07-15T01:58:09.679Z,17.03
2018-07-15T01:58:44.795Z,16.93
2018-07-15T01:59:19.979Z,17.00
2018-07-15T01:59:55.040Z,16.90
2018-07-15T02:00:30.439Z,16.90
2018-07-15T02:01:05.653Z,16.88
2018-07-15T02:01:41.257Z,16.75
2018-07-15T02:02:16.584Z,16.68
2018-07-15T02:02:51.795Z,16.86
2018-07-15T02:03:27.128Z,16.75
2018-07-15T02:04:02.217Z,16.74
2018-07-15T02:04:37.676Z,16.70
2018-07-15T02:05:12.985Z,16.70
2018-07-15T02:05:48.285Z,16.68
2018-07-15T02:06:23.597Z,16.58
2018-07-15T02:06:58.716Z,16.67
2018-07-15T02:07:34.004Z,16.62
2018-07-15T02:08:09.319Z,16.60
2018-07-15T02:08:44.804Z,16.68
2018-07-15T02:09:20.021Z,16.70
2018-07-15T02:09:55.440Z,16.77
2018-07-15T02:10:30.976Z,16.60
2018-07-15T02:11:06.289Z,16.65
2018-07-15T02:11:41.512Z,16.65
2018-07-15T02:12:16.730Z,16.67
2018-07-15T02:12:51.850Z,16.68
2018-07-15T02:13:27.241Z,16.68
2018-07-15T02:14:02.590Z,16.77
2018-07-15T02:14:37.730Z,16.67
2018-07-15T02:15:12.846Z,16.70
2018-07-15T02:15:48.149Z,16.65
2018-07-15T02:16:23.359Z,16.68
2018-07-15T02:16:58.380Z,16.63
2018-07-15T02:17:33.829Z,16.73
2018-07-15T02:18:09.632Z,16.58
2018-07-15T02:18:45.169Z,16.73
2018-07-15T02:19:20.476Z,16.60
2018-07-15T02:19:55.840Z,16.70
2018-07-15T02:20:31.030Z,16.70
2018-07-15T02:21:06.357Z,16.67
2018-07-15T02:21:41.666Z,16.65
2018-07-15T02:22:17.092Z,16.58
2018-07-15T02:22:52.584Z,16.67
2018-07-15T02:23:28.120Z,16.63
2018-07-15T02:24:03.426Z,16.65
2018-07-15T02:24:38.969Z,16.62
2018-07-15T02:25:13.988Z,16.63
2018-07-15T02:25:49.417Z,16.63
2018-07-15T02:26:24.514Z,16.63
2018-07-15T02:27:00.218Z,16.60
2018-07-15T02:27:35.821Z,16.67
2018-07-15T02:28:11.230Z,16.63
2018-07-15T02:28:46.424Z,16.53
2018-07-15T02:29:21.658Z,16.60
2018-07-15T02:29:57.192Z,16.62
2018-07-15T02:30:32.501Z,16.58
2018-07-15T02:31:07.811Z,16.60
2018-07-15T02:31:43.119Z,16.44
2018-07-15T02:32:18.338Z,16.58
2018-07-15T02:32:54.174Z,16.50
2018-07-15T02:33:29.669Z,16.55
2018-07-15T02:34:05.078Z,16.49
2018-07-15T02:34:40.294Z,16.52
2018-07-15T02:35:15.526Z,16.45
2018-07-15T02:35:50.692Z,16.44
2018-07-15T02:36:26.322Z,16.53
2018-07-15T02:37:01.499Z,16.42
2018-07-15T02:37:36.705Z,16.44
2018-07-15T02:38:11.779Z,16.48
2018-07-15T02:38:47.122Z,16.48
2018-07-15T02:39:22.618Z,16.42
2018-07-15T02:39:58.080Z,16.45
2018-07-15T02:40:33.585Z,16.45
2018-07-15T02:41:09.101Z,16.53
2018-07-15T02:41:44.379Z,16.45
2018-07-15T02:42:19.912Z,16.45
2018-07-15T02:42:55.012Z,16.42
2018-07-15T02:43:30.529Z,16.44
2018-07-15T02:44:05.737Z,16.35
2018-07-15T02:44:41.196Z,16.37
2018-07-15T02:45:16.498Z,16.37
2018-07-15T02:45:51.831Z,16.30
2018-07-15T02:46:27.352Z,16.34
2018-07-15T02:47:02.762Z,16.34
2018-07-15T02:47:37.779Z,16.35
2018-07-15T02:48:12.979Z,16.27
2018-07-15T02:48:48.301Z,16.26
2018-07-15T02:49:24.030Z,16.23
2018-07-15T02:49:59.261Z,16.20
2018-07-15T02:50:34.489Z,16.23
2018-07-15T02:51:09.882Z,16.25
2018-07-15T02:51:45.388Z,16.23
2018-07-15T02:52:20.701Z,16.26
2018-07-15T02:52:55.921Z,16.22
2018-07-15T02:53:31.191Z,16.22
2018-07-15T02:54:06.702Z,16.20
2018-07-15T02:54:42.129Z,16.30
2018-07-15T02:55:17.339Z,16.22
2018-07-15T02:55:52.729Z,16.25
2018-07-15T02:56:28.441Z,16.12
2018-07-15T02:57:03.841Z,16.01
2018-07-15T02:57:39.563Z,16.11
2018-07-15T02:58:14.955Z,16.01
2018-07-15T02:58:50.517Z,16.01
2018-07-15T02:59:25.700Z,16.00
2018-07-15T03:00:01.255Z,16.09
2018-07-15T03:00:36.886Z,16.09
2018-07-15T03:01:12.210Z,16.04
2018-07-15T03:01:47.694Z,16.06
2018-07-15T03:02:22.914Z,16.09
2018-07-15T03:02:58.449Z,16.07
2018-07-15T03:03:33.788Z,16.00
2018-07-15T03:04:08.967Z,16.04
2018-07-15T03:04:44.133Z,16.04
2018-07-15T03:05:19.522Z,16.11
2018-07-15T03:05:54.657Z,16.09
2018-07-15T03:06:29.741Z,15.97
2018-07-15T03:07:05.258Z,16.07
2018-07-15T03:07:41.073Z,16.09
2018-07-15T03:08:16.508Z,16.06
2018-07-15T03:08:51.796Z,16.06
2018-07-15T03:09:26.946Z,15.97
2018-07-15T03:10:02.490Z,16.06
2018-07-15T03:10:38.112Z,16.09
2018-07-15T03:11:13.411Z,15.99
2018-07-15T03:11:48.719Z,16.09
2018-07-15T03:12:24.000Z,16.03
2018-07-15T03:12:59.534Z,16.00
2018-07-15T03:13:34.955Z,16.04
2018-07-15T03:14:10.669Z,16.01
2018-07-15T03:14:45.984Z,16.04
2018-07-15T03:15:21.695Z,15.93
2018-07-15T03:15:57.095Z,15.93
2018-07-15T03:16:32.834Z,15.97
2018-07-15T03:17:07.890Z,16.06
2018-07-15T03:17:43.299Z,15.94
2018-07-15T03:18:18.906Z,15.99
2018-07-15T03:18:54.300Z,16.00
2018-07-15T03:19:29.582Z,16.06
2018-07-15T03:20:04.928Z,15.97
2018-07-15T03:20:40.119Z,16.03
2018-07-15T03:21:15.336Z,15.86
2018-07-15T03:21:50.630Z,16.00
2018-07-15T03:22:26.234Z,16.01
2018-07-15T03:23:01.719Z,16.01
2018-07-15T03:23:37.139Z,15.94
2018-07-15T03:24:12.353Z,15.85
2018-07-15T03:24:47.698Z,15.93
2018-07-15T03:25:23.309Z,15.97
2018-07-15T03:25:58.829Z,15.96
2018-07-15T03:26:34.000Z,15.97
2018-07-15T03:27:09.220Z,15.93
2018-07-15T03:27:44.500Z,15.93
2018-07-15T03:28:19.704Z,15.89
2018-07-15T03:28:54.993Z,15.93
2018-07-15T03:29:30.199Z,16.00
2018-07-15T03:30:05.516Z,15.96
2018-07-15T03:30:41.134Z,15.93
2018-07-15T03:31:16.652Z,15.93
2018-07-15T03:31:51.972Z,15.89
2018-07-15T03:32:27.465Z,15.99
2018-07-15T03:33:02.797Z,15.97
2018-07-15T03:33:37.895Z,15.93
2018-07-15T03:34:13.181Z,15.86
2018-07-15T03:34:48.426Z,15.99
2018-07-15T03:35:23.861Z,15.97
2018-07-15T03:35:59.160Z,15.96
2018-07-15T03:36:34.684Z,15.88
2018-07-15T03:37:10.099Z,15.93
2018-07-15T03:37:45.513Z,15.94
2018-07-15T03:38:20.917Z,15.92
2018-07-15T03:38:56.452Z,15.89
2018-07-15T03:39:32.063Z,15.96
2018-07-15T03:40:07.525Z,15.86
2018-07-15T03:40:43.029Z,15.85
2018-07-15T03:41:18.356Z,15.86
2018-07-15T03:41:53.587Z,15.81
2018-07-15T03:42:28.929Z,15.81
2018-07-15T03:43:04.302Z,15.94
2018-07-15T03:43:39.326Z,15.86
2018-07-15T03:44:14.630Z,15.81
2018-07-15T03:44:49.917Z,15.93
2018-07-15T03:45:25.101Z,15.89
2018-07-15T03:46:00.454Z,15.84
2018-07-15T03:46:35.535Z,15.85
2018-07-15T03:47:10.854Z,15.92
2018-07-15T03:47:46.356Z,15.88
2018-07-15T03:48:21.674Z,15.85
2018-07-15T03:48:57.170Z,15.68
2018-07-15T03:49:32.683Z,15.79
2018-07-15T03:50:07.819Z,15.78
2018-07-15T03:50:43.144Z,15.75
2018-07-15T03:51:18.654Z,15.75
2018-07-15T03:51:53.891Z,15.74
2018-07-15T03:52:29.082Z,15.75
2018-07-15T03:53:04.582Z,15.72
2018-07-15T03:53:39.971Z,15.72
2018-07-15T03:54:15.193Z,15.67
2018-07-15T03:54:50.222Z,15.74
2018-07-15T03:55:25.526Z,15.76
2018-07-15T03:56:00.722Z,15.76
2018-07-15T03:56:36.054Z,15.74
2018-07-15T03:57:11.454Z,15.70
2018-07-15T03:57:46.980Z,15.74
2018-07-15T03:58:22.279Z,15.68
2018-07-15T03:58:57.843Z,15.76
2018-07-15T03:59:33.033Z,15.61
2018-07-15T04:00:08.368Z,15.70
2018-07-15T04:00:43.672Z,15.61
2018-07-15T04:01:19.004Z,15.67
2018-07-15T04:01:54.230Z,15.61
2018-07-15T04:02:30.139Z,15.68
2018-07-15T04:03:05.546Z,15.63
2018-07-15T04:03:40.867Z,15.54
2018-07-15T04:04:16.269Z,15.52
2018-07-15T04:04:51.780Z,15.61
2018-07-15T04:05:27.402Z,15.59
2018-07-15T04:06:02.728Z,15.60
2018-07-15T04:06:37.823Z,15.57
2018-07-15T04:07:13.457Z,15.64
2018-07-15T04:07:48.879Z,15.72
2018-07-15T04:08:24.132Z,15.63
2018-07-15T04:08:59.643Z,15.56
2018-07-15T04:09:34.951Z,15.60
2018-07-15T04:10:10.548Z,15.72
2018-07-15T04:10:45.664Z,15.57
2018-07-15T04:11:20.961Z,15.57
2018-07-15T04:11:56.282Z,15.66
2018-07-15T04:12:31.562Z,15.68
2018-07-15T04:13:07.092Z,15.56
2018-07-15T04:13:42.725Z,15.61
2018-07-15T04:14:17.848Z,15.56
2018-07-15T04:14:53.149Z,15.59
2018-07-15T04:15:28.391Z,15.63
2018-07-15T04:16:03.569Z,15.60
2018-07-15T04:16:39.199Z,15.52
2018-07-15T04:17:14.613Z,15.66
2018-07-15T04:17:50.040Z,15.64
2018-07-15T04:18:25.329Z,15.70
2018-07-15T04:19:00.727Z,15.60
2018-07-15T04:19:36.082Z,15.68
2018-07-15T04:20:11.314Z,15.64
2018-07-15T04:20:46.304Z,15.67
2018-07-15T04:21:21.639Z,15.59
2018-07-15T04:21:56.917Z,15.66
2018-07-15T04:22:32.042Z,15.60
2018-07-15T04:23:07.127Z,15.56
2018-07-15T04:23:42.483Z,15.64
2018-07-15T04:24:17.860Z,15.63
2018-07-15T04:24:53.835Z,15.61
2018-07-15T04:25:29.020Z,15.67
2018-07-15T04:26:04.337Z,15.72
2018-07-15T04:26:39.645Z,15.70
2018-07-15T04:27:14.980Z,15.56
2018-07-15T04:27:50.474Z,15.60
2018-07-15T04:28:25.594Z,15.64
2018-07-15T04:29:00.998Z,15.66
2018-07-15T04:29:36.348Z,15.61
2018-07-15T04:30:11.696Z,15.60
2018-07-15T04:30:47.049Z,15.57
2018-07-15T04:31:22.442Z,15.59
2018-07-15T04:31:57.891Z,15.64
2018-07-15T04:32:33.378Z,15.56
2018-07-15T04:33:08.597Z,15.63
2018-07-15T04:33:43.896Z,15.56
2018-07-15T04:34:19.016Z,15.52
2018-07-15T04:34:54.123Z,15.66
2018-07-15T04:35:29.580Z,15.67
2018-07-15T04:36:04.865Z,15.49
2018-07-15T04:36:41.173Z,15.60
2018-07-15T04:37:16.576Z,15.64
2018-07-15T04:37:52.049Z,15.60
2018-07-15T04:38:27.113Z,15.52
2018-07-15T04:39:02.217Z,15.67
2018-07-15T04:39:37.653Z,15.67
2018-07-15T04:40:13.063Z,15.64
2018-07-15T04:40:48.262Z,15.63
2018-07-15T04:41:23.599Z,15.70
2018-07-15T04:41:58.988Z,15.60
2018-07-15T04:42:34.244Z,15.67
2018-07-15T04:43:09.548Z,15.67
2018-07-15T04:43:44.906Z,15.74
2018-07-15T04:44:20.050Z,15.67
2018-07-15T04:44:55.516Z,15.70
2018-07-15T04:45:31.213Z,15.81
2018-07-15T04:46:06.825Z,15.67
2018-07-15T04:46:42.311Z,15.70
2018-07-15T04:47:18.029Z,15.74
2018-07-15T04:47:53.314Z,15.82
2018-07-15T04:48:28.633Z,15.78
2018-07-15T04:49:03.960Z,15.82
2018-07-15T04:49:39.600Z,15.78
2018-07-15T04:50:14.681Z,15.74
2018-07-15T04:50:50.011Z,15.75
2018-07-15T04:51:25.236Z,15.76
2018-07-15T04:52:00.739Z,15.78
2018-07-15T04:52:36.053Z,15.85
2018-07-15T04:53:11.283Z,15.82
2018-07-15T04:53:46.706Z,15.76
2018-07-15T04:54:22.031Z,15.86
2018-07-15T04:54:57.773Z,15.84
2018-07-15T04:55:32.927Z,15.82
2018-07-15T04:56:08.531Z,15.82
2018-07-15T04:56:43.654Z,15.81
2018-07-15T04:57:19.080Z,15.85
2018-07-15T04:57:54.422Z,15.94
2018-07-15T04:58:29.823Z,15.88
2018-07-15T04:59:05.070Z,15.84
2018-07-15T04:59:40.209Z,15.86
2018-07-15T05:00:15.636Z,15.85
2018-07-15T05:00:50.864Z,15.92
2018-07-15T05:01:26.279Z,15.96
2018-07-15T05:02:01.763Z,15.94
2018-07-15T05:02:37.339Z,15.94
2018-07-15T05:03:12.747Z,16.00
2018-07-15T05:03:48.167Z,15.94
2018-07-15T05:04:23.470Z,16.03
2018-07-15T05:04:59.113Z,15.97
2018-07-15T05:05:34.611Z,15.97
2018-07-15T05:06:10.136Z,15.89
2018-07-15T05:06:45.349Z,16.04
2018-07-15T05:07:20.585Z,16.01
2018-07-15T05:07:55.871Z,15.99
2018-07-15T05:08:31.192Z,16.09
2018-07-15T05:09:06.389Z,16.04
2018-07-15T05:09:42.143Z,16.07
2018-07-15T05:10:17.264Z,16.07
2018-07-15T05:10:52.579Z,16.04
2018-07-15T05:11:27.978Z,16.12
2018-07-15T05:12:03.214Z,16.09
2018-07-15T05:12:38.520Z,16.14
2018-07-15T05:13:13.747Z,16.06
2018-07-15T05:13:48.945Z,16.03
2018-07-15T05:14:24.095Z,16.12
2018-07-15T05:14:59.704Z,16.18
2018-07-15T05:15:35.160Z,16.20
2018-07-15T05:16:10.574Z,16.15
2018-07-15T05:16:46.113Z,16.22
2018-07-15T05:17:21.595Z,16.20
2018-07-15T05:17:57.109Z,16.26
2018-07-15T05:18:32.461Z,16.30
2018-07-15T05:19:07.865Z,16.33
2018-07-15T05:19:43.201Z,16.34
2018-07-15T05:20:18.622Z,16.40
2018-07-15T05:20:53.707Z,16.40
2018-07-15T05:21:28.918Z,16.49
2018-07-15T05:22:04.263Z,16.44
2018-07-15T05:22:39.885Z,16.45
2018-07-15T05:23:15.167Z,16.53
2018-07-15T05:23:50.294Z,16.42
2018-07-15T05:24:25.902Z,16.48
2018-07-15T05:25:01.286Z,16.48
2018-07-15T05:25:36.444Z,16.59
2018-07-15T05:26:12.055Z,16.60
2018-07-15T05:26:47.405Z,16.62
2018-07-15T05:27:22.941Z,16.59
2018-07-15T05:27:58.180Z,16.52
2018-07-15T05:28:33.497Z,16.73
2018-07-15T05:29:08.805Z,16.78
2018-07-15T05:29:44.146Z,16.77
2018-07-15T05:30:19.565Z,16.71
2018-07-15T05:30:54.911Z,16.85
2018-07-15T05:31:30.356Z,16.89
2018-07-15T05:32:05.769Z,16.83
2018-07-15T05:32:41.369Z,16.96
2018-07-15T05:33:16.818Z,16.92
2018-07-15T05:33:52.242Z,17.03
2018-07-15T05:34:27.621Z,17.06
2018-07-15T05:35:03.147Z,17.04
2018-07-15T05:35:38.460Z,17.14
2018-07-15T05:36:13.969Z,17.13
2018-07-15T05:36:49.719Z,17.08
2018-07-15T05:37:24.706Z,17.11
2018-07-15T05:37:59.919Z,17.15
2018-07-15T05:38:35.136Z,17.14
2018-07-15T05:39:10.678Z,17.25
2018-07-15T05:39:46.319Z,17.26
2018-07-15T05:40:22.064Z,17.30
2018-07-15T05:40:57.468Z,17.26
2018-07-15T05:41:32.794Z,17.32
2018-07-15T05:42:08.093Z,17.38
2018-07-15T05:42:43.453Z,17.40
2018-07-15T05:43:18.646Z,17.43
2018-07-15T05:43:54.079Z,17.44
2018-07-15T05:44:29.766Z,17.50
2018-07-15T05:45:05.328Z,17.53
2018-07-15T05:45:40.718Z,17.53
2018-07-15T05:46:16.467Z,17.63
2018-07-15T05:46:51.887Z,17.63
2018-07-15T05:47:27.307Z,17.66
2018-07-15T05:48:02.623Z,17.67
2018-07-15T05:48:37.882Z,17.69
2018-07-15T05:49:13.407Z,17.73
2018-07-15T05:49:49.181Z,17.89
2018-07-15T05:50:24.496Z,17.89
2018-07-15T05:50:59.767Z,17.92
2018-07-15T05:51:35.075Z,17.92
2018-07-15T05:52:10.615Z,17.94
2018-07-15T05:52:45.844Z,18.00
2018-07-15T05:53:21.230Z,18.02
2018-07-15T05:53:56.614Z,18.07
2018-07-15T05:54:32.042Z,18.09
2018-07-15T05:55:07.988Z,18.13
2018-07-15T05:55:43.315Z,18.31
2018-07-15T05:56:18.621Z,18.36
2018-07-15T05:56:54.058Z,18.39
2018-07-15T05:57:29.644Z,18.33
2018-07-15T05:58:05.609Z,18.39
2018-07-15T05:58:40.627Z,18.49
2018-07-15T05:59:16.268Z,18.57
2018-07-15T05:59:51.792Z,18.55
2018-07-15T06:00:27.105Z,18.65
2018-07-15T06:01:02.505Z,18.59
2018-07-15T06:01:37.939Z,18.76
2018-07-15T06:02:13.632Z,18.77
2018-07-15T06:02:48.987Z,18.86
2018-07-15T06:03:24.221Z,18.97
2018-07-15T06:03:59.520Z,19.02
2018-07-15T06:04:34.838Z,18.99
2018-07-15T06:05:10.188Z,19.01
2018-07-15T06:05:45.501Z,19.08
2018-07-15T06:06:20.940Z,19.08
2018-07-15T06:06:56.627Z,19.28
2018-07-15T06:07:32.045Z,19.39
2018-07-15T06:08:07.365Z,19.43
2018-07-15T06:08:42.918Z,19.42
2018-07-15T06:09:18.140Z,19.55
2018-07-15T06:09:53.503Z,19.65
2018-07-15T06:10:28.601Z,19.70
2018-07-15T06:11:03.740Z,19.80
2018-07-15T06:11:38.926Z,19.86
2018-07-15T06:12:14.186Z,19.93
2018-07-15T06:12:49.986Z,20.05
2018-07-15T06:13:25.318Z,20.12
2018-07-15T06:14:00.733Z,20.21
2018-07-15T06:14:36.084Z,20.28
2018-07-15T06:15:11.379Z,20.41
2018-07-15T06:15:47.713Z,20.53
2018-07-15T06:16:23.100Z,20.61
2018-07-15T06:16:58.600Z,20.72
2018-07-15T06:17:34.163Z,20.83
2018-07-15T06:18:09.801Z,20.96
2018-07-15T06:18:45.187Z,20.86
2018-07-15T06:19:20.637Z,21.02
2018-07-15T06:19:55.971Z,21.08
2018-07-15T06:20:31.420Z,21.21
2018-07-15T06:21:06.502Z,21.24
2018-07-15T06:21:41.827Z,21.23
2018-07-15T06:22:17.344Z,21.41
2018-07-15T06:22:52.707Z,21.39
2018-07-15T06:23:27.996Z,21.48
2018-07-15T06:24:03.333Z,21.59
2018-07-15T06:24:38.682Z,21.69
2018-07-15T06:25:13.829Z,21.71
2018-07-15T06:25:52.449Z,21.99
2018-07-15T06:26:27.588Z,21.97
2018-07-15T06:27:06.781Z,22.12
2018-07-15T06:27:45.106Z,22.20
2018-07-15T06:28:20.612Z,22.28
2018-07-15T06:28:59.636Z,22.43
2018-07-15T06:29:35.049Z,22.54
2018-07-15T06:30:10.474Z,22.49
2018-07-15T06:30:47.198Z,22.64
2018-07-15T06:31:22.728Z,22.82
2018-07-15T06:31:58.167Z,22.92
2018-07-15T06:32:33.243Z,23.09
2018-07-15T06:33:08.638Z,23.01
2018-07-15T06:33:45.708Z,23.19
2018-07-15T06:34:21.200Z,23.19
2018-07-15T06:34:56.672Z,23.23
2018-07-15T06:35:32.076Z,23.38
2018-07-15T06:36:08.710Z,23.47
2018-07-15T06:36:45.633Z,23.43
2018-07-15T06:37:21.364Z,23.52
2018-07-15T06:37:56.468Z,23.61
2018-07-15T06:38:31.682Z,23.67
2018-07-15T06:39:07.102Z,23.76
2018-07-15T06:39:42.478Z,23.92
2018-07-15T06:40:17.703Z,24.26
2018-07-15T06:40:53.181Z,24.42
2018-07-15T06:41:28.475Z,24.77
2018-07-15T06:42:03.812Z,25.10
2018-07-15T06:42:39.431Z,25.43
2018-07-15T06:43:15.096Z,25.69
2018-07-15T06:43:50.517Z,25.94
2018-07-15T06:44:26.246Z,26.27
2018-07-15T06:45:02.781Z,26.58
2018-07-15T06:45:38.214Z,26.86
2018-07-15T06:46:13.829Z,27.01
2018-07-15T06:46:49.147Z,27.20
2018-07-15T06:47:24.667Z,27.24
2018-07-15T06:48:00.016Z,27.36
2018-07-15T06:48:35.333Z,27.57
2018-07-15T06:49:11.029Z,27.59
2018-07-15T06:49:46.350Z,27.73
2018-07-15T06:50:21.720Z,27.62
2018-07-15T06:50:57.318Z,27.39
2018-07-15T06:51:32.838Z,27.38
2018-07-15T06:52:08.250Z,27.35
2018-07-15T06:52:44.913Z,27.32
2018-07-15T06:53:20.320Z,27.39
2018-07-15T06:53:55.567Z,27.43
2018-07-15T06:54:30.788Z,27.41
2018-07-15T06:55:06.253Z,27.36
2018-07-15T06:55:41.663Z,27.33
2018-07-15T06:56:17.018Z,27.46
2018-07-15T06:56:53.817Z,27.35
2018-07-15T06:57:29.352Z,27.38
2018-07-15T06:58:04.652Z,27.38
2018-07-15T06:58:40.178Z,27.28
2018-07-15T06:59:15.387Z,27.14
2018-07-15T06:59:50.963Z,27.10
2018-07-15T07:00:26.359Z,27.11
2018-07-15T07:01:02.901Z,27.11
2018-07-15T07:01:38.364Z,27.02
2018-07-15T07:02:13.652Z,26.99
2018-07-15T07:02:49.075Z,27.01
2018-07-15T07:03:24.705Z,27.04
2018-07-15T07:06:01.489Z,27.13
2018-07-15T07:06:37.031Z,27.01
2018-07-15T07:07:12.569Z,27.05
2018-07-15T07:07:47.822Z,27.06
2018-07-15T07:08:23.210Z,27.16
2018-07-15T07:08:59.456Z,27.23
2018-07-15T07:09:34.868Z,27.41
2018-07-15T07:10:10.117Z,27.54
2018-07-15T07:13:25.907Z,27.59
2018-07-15T07:14:04.614Z,27.67
2018-07-15T07:14:39.647Z,27.79
2018-07-15T07:15:14.867Z,27.91
2018-07-15T07:15:49.947Z,27.98
2018-07-15T07:16:25.308Z,27.98
2018-07-15T07:17:00.887Z,27.91
2018-07-15T07:17:36.517Z,27.88
2018-07-15T07:18:11.683Z,27.88
2018-07-15T07:18:47.338Z,27.85
2018-07-15T07:19:22.631Z,27.86
2018-07-15T07:19:57.788Z,27.92
2018-07-15T07:20:33.228Z,27.96
2018-07-15T07:21:08.653Z,28.04
2018-07-15T07:21:43.970Z,28.13
2018-07-15T07:22:20.277Z,28.01
2018-07-15T07:22:55.861Z,27.94
2018-07-15T07:23:34.289Z,28.03
2018-07-15T07:24:09.718Z,27.96
2018-07-15T07:24:45.149Z,27.98
2018-07-15T07:25:20.350Z,27.96
2018-07-15T07:25:55.675Z,28.11
2018-07-15T07:26:31.174Z,28.28
2018-07-15T07:29:07.676Z,28.95
2018-07-15T07:29:43.327Z,28.97
2018-07-15T07:30:23.789Z,28.96
2018-07-15T07:31:00.395Z,29.07
2018-07-15T07:31:37.359Z,29.15
2018-07-15T07:32:13.785Z,29.16
2018-07-15T07:32:49.206Z,29.33
2018-07-15T07:33:24.625Z,29.43
2018-07-15T07:33:59.910Z,29.56
2018-07-15T07:34:36.480Z,29.79
2018-07-15T07:35:11.795Z,29.86
2018-07-15T07:35:47.128Z,30.11
2018-07-15T07:36:22.517Z,30.37
2018-07-15T07:36:57.951Z,30.53
2018-07-15T07:37:37.271Z,30.84
2018-07-15T07:38:12.747Z,31.02
2018-07-15T07:38:52.501Z,31.17
2018-07-15T07:39:28.021Z,31.28
2018-07-15T07:42:42.382Z,31.48
2018-07-15T07:43:17.505Z,31.39
2018-07-15T07:45:55.176Z,31.93
2018-07-15T07:46:33.984Z,32.27
2018-07-15T07:47:09.386Z,32.59
2018-07-15T07:47:44.693Z,32.80